Manti, Utah
Current Conditions -  °F | °C
As of 3:35 PM on Friday 19 Dec 2014 (Local Time) from KDTA Reporting Station
Scattered Clouds Scattered Clouds  
Wind Chill: 41°   Ceiling: Unl
Heat Index: 45°   Visibility: 10mi
Dew Point: 25°   Wind: 7mph
Humidity: 46%   Direction: 120°ESE
Pressure: 30.12"   Gusts: NA
Location:  39.27°N, 111.64°W
Report Text: KDTA 192235Z AUTO 12006KT 10SM SCT080 SCT100 07/M04 A3012 RMK AO1 T00721039
Loading
Personal Weather Stations






























Interactive Weather Map New forecast layout! Learn more

10-Day Weather Forecast

Advertisements
Track Severe Weather on mobile